Time,TemperatureF,DewpointF,PressureIn,WindDirection,WindDirectionDegrees,WindSpeedMPH,WindSpeedGustMPH,Humidity,HourlyPrecipIn,Conditions,Clouds,dailyrainin,SoftwareType,DateUTC
2013-01-30 00:00:00,10.1,-7.1,29.81,NW,322,1.0,1.0,45,0.00,,,0.00,Wunderground v.1.15,2013-01-30 07:00:00,
2013-01-30 00:05:00,9.6,-6.6,29.81,NW,316,0.0,2.0,47,0.00,,,0.00,Wunderground v.1.15,2013-01-30 07:05:00,
2013-01-30 00:10:00,9.1,-7.1,29.81,NNW,343,0.0,2.0,47,0.00,,,0.00,Wunderground v.1.15,2013-01-30 07:10:00,
2013-01-30 00:15:00,8.9,-7.3,29.81,NNW,337,1.0,2.0,47,0.00,,,0.00,Wunderground v.1.15,2013-01-30 07:15:00,
2013-01-30 00:20:00,8.9,-6.8,29.81,NW,322,0.0,2.0,48,0.00,,,0.00,Wunderground v.1.15,2013-01-30 07:20:00,
2013-01-30 00:25:00,8.7,-7.0,29.82,NNW,327,0.0,2.0,48,0.00,,,0.00,Wunderground v.1.15,2013-01-30 07:25:00,
2013-01-30 00:30:00,8.5,-6.8,29.81,NNW,327,0.0,2.0,49,0.00,,,0.00,Wunderground v.1.15,2013-01-30 07:30:00,
2013-01-30 00:35:00,8.2,-6.6,29.81,NW,322,0.0,2.0,50,0.00,,,0.00,Wunderground v.1.15,2013-01-30 07:35:00,
2013-01-30 00:40:00,8.0,-6.8,29.82,NW,322,0.0,2.0,50,0.00,,,0.00,Wunderground v.1.15,2013-01-30 07:40:00,
2013-01-30 00:50:00,7.4,-6.6,29.82,NNW,340,0.0,2.0,52,0.00,,,0.00,Wunderground v.1.15,2013-01-30 07:50:00,
2013-01-30 00:55:00,7.4,-7.0,29.83,NW,311,0.0,2.0,51,0.00,,,0.00,Wunderground v.1.15,2013-01-30 07:55:00,
2013-01-30 01:00:00,7.4,-7.0,29.83,NW,311,0.0,2.0,51,0.00,,,0.00,Wunderground v.1.15,2013-01-30 08:00:00,
2013-01-30 01:05:00,7.4,-7.0,29.83,WNW,303,0.0,2.0,51,0.00,,,0.00,Wunderground v.1.15,2013-01-30 08:05:00,
2013-01-30 01:15:00,6.8,-7.1,29.83,NW,304,0.0,2.0,52,0.00,,,0.00,Wunderground v.1.15,2013-01-30 08:15:00,
2013-01-30 01:20:00,6.2,-7.7,29.83,NW,310,0.0,2.0,52,0.00,,,0.00,Wunderground v.1.15,2013-01-30 08:20:00,
2013-01-30 01:25:00,5.8,-7.3,29.83,NW,310,0.0,2.0,54,0.00,,,0.00,Wunderground v.1.15,2013-01-30 08:25:00,
2013-01-30 01:30:00,5.4,-6.9,29.83,NW,310,0.0,2.0,56,0.00,,,0.00,Wunderground v.1.15,2013-01-30 08:30:00,
2013-01-30 01:35:00,5.4,-6.9,29.83,NW,310,0.0,2.0,56,0.00,,,0.00,Wunderground v.1.15,2013-01-30 08:35:00,
2013-01-30 01:40:00,5.4,-7.3,29.84,NW,310,0.0,2.0,55,0.00,,,0.00,Wunderground v.1.15,2013-01-30 08:40:00,
2013-01-30 01:45:00,5.4,-7.7,29.84,NW,310,0.0,2.0,54,0.00,,,0.00,Wunderground v.1.15,2013-01-30 08:45:00,
2013-01-30 01:50:00,5.2,-7.9,29.84,NW,310,0.0,2.0,54,0.00,,,0.00,Wunderground v.1.15,2013-01-30 08:50:00,
2013-01-30 02:00:00,4.7,-8.3,29.84,NW,310,0.0,2.0,54,0.00,,,0.00,Wunderground v.1.15,2013-01-30 09:00:00,
2013-01-30 02:05:00,4.7,-8.3,29.84,WNW,284,0.0,2.0,54,0.00,,,0.00,Wunderground v.1.15,2013-01-30 09:05:00,
2013-01-30 02:10:00,4.9,-8.1,29.84,North,5,0.0,2.0,54,0.00,,,0.00,Wunderground v.1.15,2013-01-30 09:10:00,
2013-01-30 02:15:00,5.0,-8.4,29.84,NNW,336,0.0,2.0,53,0.00,,,0.00,Wunderground v.1.15,2013-01-30 09:15:00,
2013-01-30 02:20:00,5.2,-8.2,29.85,NNW,336,0.0,2.0,53,0.00,,,0.00,Wunderground v.1.15,2013-01-30 09:20:00,
2013-01-30 02:25:00,5.6,-8.3,29.84,NNW,336,0.0,2.0,52,0.00,,,0.00,Wunderground v.1.15,2013-01-30 09:25:00,
2013-01-30 02:30:00,5.7,-9.0,29.84,NNW,336,0.0,2.0,50,0.00,,,0.00,Wunderground v.1.15,2013-01-30 09:30:00,
2013-01-30 02:35:00,5.8,-8.9,29.84,NNW,336,0.0,2.0,50,0.00,,,0.00,Wunderground v.1.15,2013-01-30 09:35:00,
2013-01-30 02:40:00,5.6,-9.1,29.84,NNW,336,0.0,2.0,50,0.00,,,0.00,Wunderground v.1.15,2013-01-30 09:40:00,
2013-01-30 02:45:00,5.5,-9.2,29.84,NNW,336,0.0,2.0,50,0.00,,,0.00,Wunderground v.1.15,2013-01-30 09:45:00,
2013-01-30 02:50:00,5.6,-8.7,29.84,NNW,336,0.0,2.0,51,0.00,,,0.00,Wunderground v.1.15,2013-01-30 09:50:00,
2013-01-30 02:55:00,5.5,-8.4,29.84,NNW,336,0.0,2.0,52,0.00,,,0.00,Wunderground v.1.15,2013-01-30 09:55:00,
2013-01-30 03:00:00,5.5,-8.7,29.84,NNW,336,0.0,2.0,51,0.00,,,0.00,Wunderground v.1.15,2013-01-30 10:00:00,
2013-01-30 03:10:00,5.6,-8.7,29.84,NNW,336,0.0,2.0,51,0.00,,,0.00,Wunderground v.1.15,2013-01-30 10:10:00,
2013-01-30 03:15:00,5.7,-8.2,29.84,NNW,336,0.0,2.0,52,0.00,,,0.00,Wunderground v.1.15,2013-01-30 10:15:00,
2013-01-30 03:25:00,5.6,-8.3,29.84,NNW,336,0.0,2.0,52,0.00,,,0.00,Wunderground v.1.15,2013-01-30 10:25:00,
2013-01-30 03:30:00,5.6,-8.3,29.85,NNW,336,0.0,2.0,52,0.00,,,0.00,Wunderground v.1.15,2013-01-30 10:30:00,
2013-01-30 03:35:00,5.6,-8.3,29.85,NNW,336,0.0,2.0,52,0.00,,,0.00,Wunderground v.1.15,2013-01-30 10:35:00,
2013-01-30 03:40:00,5.6,-8.3,29.84,NNW,336,0.0,2.0,52,0.00,,,0.00,Wunderground v.1.15,2013-01-30 10:40:00,
2013-01-30 03:45:00,5.6,-8.3,29.84,NNW,336,0.0,2.0,52,0.00,,,0.00,Wunderground v.1.15,2013-01-30 10:45:00,
2013-01-30 03:50:00,5.8,-8.1,29.84,NW,321,0.0,2.0,52,0.00,,,0.00,Wunderground v.1.15,2013-01-30 10:50:00,
2013-01-30 03:55:00,6.0,-7.9,29.84,NW,321,0.0,2.0,52,0.00,,,0.00,Wunderground v.1.15,2013-01-30 10:55:00,
2013-01-30 04:00:00,6.0,-7.9,29.85,NW,321,0.0,2.0,52,0.00,,,0.00,Wunderground v.1.15,2013-01-30 11:00:00,
2013-01-30 04:05:00,6.0,-7.9,29.85,NW,321,0.0,2.0,52,0.00,,,0.00,Wunderground v.1.15,2013-01-30 11:05:00,
2013-01-30 04:10:00,5.9,-8.0,29.85,NW,321,0.0,2.0,52,0.00,,,0.00,Wunderground v.1.15,2013-01-30 11:10:00,
2013-01-30 04:15:00,5.7,-7.8,29.85,NW,321,0.0,2.0,53,0.00,,,0.00,Wunderground v.1.15,2013-01-30 11:15:00,
2013-01-30 04:20:00,5.7,-7.8,29.85,NW,321,0.0,2.0,53,0.00,,,0.00,Wunderground v.1.15,2013-01-30 11:20:00,
2013-01-30 04:25:00,5.7,-7.4,29.85,NW,321,0.0,2.0,54,0.00,,,0.00,Wunderground v.1.15,2013-01-30 11:25:00,
2013-01-30 04:30:00,5.6,-7.9,29.85,NW,321,0.0,2.0,53,0.00,,,0.00,Wunderground v.1.15,2013-01-30 11:30:00,
2013-01-30 04:35:00,5.4,-7.7,29.86,NW,321,0.0,2.0,54,0.00,,,0.00,Wunderground v.1.15,2013-01-30 11:35:00,
2013-01-30 04:40:00,5.4,-7.7,29.86,NW,321,0.0,2.0,54,0.00,,,0.00,Wunderground v.1.15,2013-01-30 11:40:00,
2013-01-30 04:45:00,5.6,-5.0,29.86,NW,321,0.0,2.0,61,0.00,,,0.00,Wunderground v.1.15,2013-01-30 11:45:00,
2013-01-30 04:50:00,5.5,-7.2,29.86,WNW,300,0.0,2.0,55,0.00,,,0.00,Wunderground v.1.15,2013-01-30 11:50:00,
2013-01-30 05:00:00,5.8,-7.7,29.86,WNW,300,0.0,2.0,53,0.00,,,0.00,Wunderground v.1.15,2013-01-30 12:00:00,
2013-01-30 05:05:00,5.9,-7.6,29.86,WNW,300,0.0,2.0,53,0.00,,,0.00,Wunderground v.1.15,2013-01-30 12:05:00,
2013-01-30 05:10:00,5.9,-7.2,29.86,WNW,300,0.0,2.0,54,0.00,,,0.00,Wunderground v.1.15,2013-01-30 12:10:00,
2013-01-30 05:20:00,5.4,-6.9,29.86,WNW,300,0.0,2.0,56,0.00,,,0.00,Wunderground v.1.15,2013-01-30 12:20:00,
2013-01-30 05:25:00,5.1,-7.2,29.86,WNW,300,0.0,2.0,56,0.00,,,0.00,Wunderground v.1.15,2013-01-30 12:25:00,
2013-01-30 05:30:00,4.6,-7.3,29.86,WNW,300,0.0,2.0,57,0.00,,,0.00,Wunderground v.1.15,2013-01-30 12:30:00,
2013-01-30 05:35:00,4.0,-7.5,29.86,WNW,300,0.0,2.0,58,0.00,,,0.00,Wunderground v.1.15,2013-01-30 12:35:00,
2013-01-30 05:45:00,3.2,-7.9,29.86,WNW,300,0.0,2.0,59,0.00,,,0.00,Wunderground v.1.15,2013-01-30 12:45:00,
2013-01-30 05:50:00,3.0,-7.8,29.87,WNW,300,0.0,2.0,60,0.00,,,0.00,Wunderground v.1.15,2013-01-30 12:50:00,
2013-01-30 05:55:00,3.1,-7.7,29.87,WNW,300,0.0,2.0,60,0.00,,,0.00,Wunderground v.1.15,2013-01-30 12:55:00,
2013-01-30 06:00:00,3.5,-7.3,29.87,NNW,330,0.0,2.0,60,0.00,,,0.00,Wunderground v.1.15,2013-01-30 13:00:00,
2013-01-30 06:10:00,5.0,-6.9,29.88,North,360,0.0,2.0,57,0.00,,,0.00,Wunderground v.1.15,2013-01-30 13:10:00,
2013-01-30 06:15:00,5.3,-7.0,29.88,North,360,0.0,2.0,56,0.00,,,0.00,Wunderground v.1.15,2013-01-30 13:15:00,
2013-01-30 06:20:00,5.5,-6.8,29.88,North,360,0.0,2.0,56,0.00,,,0.00,Wunderground v.1.15,2013-01-30 13:20:00,
2013-01-30 06:25:00,5.8,-6.9,29.87,North,360,0.0,2.0,55,0.00,,,0.00,Wunderground v.1.15,2013-01-30 13:25:00,
2013-01-30 06:30:00,6.1,-6.6,29.88,WNW,286,0.0,2.0,55,0.00,,,0.00,Wunderground v.1.15,2013-01-30 13:30:00,
2013-01-30 06:35:00,6.3,-6.8,29.88,NW,325,0.0,2.0,54,0.00,,,0.00,Wunderground v.1.15,2013-01-30 13:35:00,
2013-01-30 06:40:00,6.4,-7.1,29.88,NW,325,0.0,2.0,53,0.00,,,0.00,Wunderground v.1.15,2013-01-30 13:40:00,
2013-01-30 06:45:00,6.5,-6.6,29.88,NNW,330,0.0,2.0,54,0.00,,,0.00,Wunderground v.1.15,2013-01-30 13:45:00,
2013-01-30 06:50:00,6.7,-6.5,29.88,NW,306,0.0,2.0,54,0.00,,,0.00,Wunderground v.1.15,2013-01-30 13:50:00,
2013-01-30 06:55:00,6.8,-6.4,29.88,NW,313,0.0,2.0,54,0.00,,,0.00,Wunderground v.1.15,2013-01-30 13:55:00,
2013-01-30 07:05:00,7.6,-6.0,29.87,NNW,341,0.0,2.0,53,0.00,,,0.00,Wunderground v.1.15,2013-01-30 14:05:00,
2013-01-30 07:10:00,8.1,-5.9,29.87,NNW,346,1.0,1.0,52,0.00,,,0.00,Wunderground v.1.15,2013-01-30 14:10:00,
2013-01-30 07:15:00,8.5,-5.5,29.88,NNW,329,1.0,4.0,52,0.00,,,0.00,Wunderground v.1.15,2013-01-30 14:15:00,
2013-01-30 07:20:00,9.2,-5.7,29.89,North,350,1.0,1.0,50,0.00,,,0.00,Wunderground v.1.15,2013-01-30 14:20:00,
2013-01-30 07:25:00,9.8,-5.6,29.89,NW,317,2.0,2.0,49,0.00,,,0.00,Wunderground v.1.15,2013-01-30 14:25:00,
2013-01-30 07:30:00,10.0,-5.4,29.89,NNW,334,1.0,1.0,49,0.00,,,0.00,Wunderground v.1.15,2013-01-30 14:30:00,
2013-01-30 07:35:00,10.1,-5.3,29.90,NNW,338,0.0,2.0,49,0.00,,,0.00,Wunderground v.1.15,2013-01-30 14:35:00,
2013-01-30 07:40:00,10.4,-5.0,29.90,NNW,341,1.0,1.0,49,0.00,,,0.00,Wunderground v.1.15,2013-01-30 14:40:00,
2013-01-30 07:45:00,10.7,-4.7,29.90,NNW,344,1.0,2.0,49,0.00,,,0.00,Wunderground v.1.15,2013-01-30 14:45:00,
2013-01-30 07:50:00,10.9,-4.6,29.90,North,350,1.0,1.0,49,0.00,,,0.00,Wunderground v.1.15,2013-01-30 14:50:00,
2013-01-30 07:55:00,11.5,-4.4,29.90,NNW,338,1.0,2.0,48,0.00,,,0.00,Wunderground v.1.15,2013-01-30 14:55:00,
2013-01-30 08:00:00,12.3,-3.7,29.90,SW,231,1.0,3.0,48,0.00,,,0.00,Wunderground v.1.15,2013-01-30 15:00:00,
2013-01-30 08:05:00,13.0,-3.9,29.90,SE,126,1.0,3.0,46,0.00,,,0.00,Wunderground v.1.15,2013-01-30 15:05:00,
2013-01-30 08:10:00,13.7,-3.3,29.89,NW,319,1.0,1.0,46,0.00,,,0.00,Wunderground v.1.15,2013-01-30 15:10:00,
2013-01-30 08:15:00,14.2,-3.3,29.89,NNW,346,1.0,2.0,45,0.00,,,0.00,Wunderground v.1.15,2013-01-30 15:15:00,
2013-01-30 08:20:00,14.5,-3.0,29.89,West,271,2.0,8.0,45,0.00,,,0.00,Wunderground v.1.15,2013-01-30 15:20:00,
2013-01-30 08:25:00,14.6,-2.5,29.90,North,360,3.0,8.0,46,0.00,,,0.00,Wunderground v.1.15,2013-01-30 15:25:00,
2013-01-30 08:30:00,14.8,-2.7,29.91,SW,235,2.0,2.0,45,0.00,,,0.00,Wunderground v.1.15,2013-01-30 15:30:00,
2013-01-30 08:35:00,14.9,-2.6,29.91,NNW,338,2.0,2.0,45,0.00,,,0.00,Wunderground v.1.15,2013-01-30 15:35:00,
2013-01-30 08:40:00,15.3,-2.3,29.92,NE,44,3.0,3.0,45,0.00,,,0.00,Wunderground v.1.15,2013-01-30 15:40:00,
2013-01-30 08:45:00,15.7,-1.4,29.91,NNW,333,2.0,4.0,46,0.00,,,0.00,Wunderground v.1.15,2013-01-30 15:45:00,
2013-01-30 08:50:00,16.1,-1.1,29.92,North,355,2.0,4.0,46,0.00,,,0.00,Wunderground v.1.15,2013-01-30 15:50:00,
2013-01-30 08:55:00,16.7,-1.0,29.92,West,279,2.0,4.0,45,0.00,,,0.00,Wunderground v.1.15,2013-01-30 15:55:00,
2013-01-30 09:00:00,17.0,-0.7,29.92,NNW,335,3.0,3.0,45,0.00,,,0.01,Wunderground v.1.15,2013-01-30 16:00:00,
2013-01-30 09:05:00,17.4,-0.4,29.92,North,349,3.0,3.0,45,0.00,,,0.01,Wunderground v.1.15,2013-01-30 16:05:00,
2013-01-30 09:10:00,17.9,-0.4,29.92,NW,320,2.0,2.0,44,0.00,,,0.01,Wunderground v.1.15,2013-01-30 16:10:00,
2013-01-30 09:15:00,18.3,0.0,29.92,NW,325,3.0,3.0,44,0.00,,,0.01,Wunderground v.1.15,2013-01-30 16:15:00,
2013-01-30 09:25:00,18.9,-0.5,29.93,North,355,3.0,4.0,42,0.00,,,0.01,Wunderground v.1.15,2013-01-30 16:25:00,
2013-01-30 09:35:00,19.5,-0.4,29.93,NNE,13,3.0,3.0,41,0.00,,,0.01,Wunderground v.1.15,2013-01-30 16:35:00,
2013-01-30 09:40:00,19.8,-0.1,29.93,West,279,3.0,3.0,41,0.00,,,0.01,Wunderground v.1.15,2013-01-30 16:40:00,
2013-01-30 09:45:00,20.3,0.3,29.94,North,5,2.0,3.0,41,0.00,,,0.01,Wunderground v.1.15,2013-01-30 16:45:00,
2013-01-30 09:50:00,20.8,1.3,29.94,WNW,285,1.0,9.0,42,0.00,,,0.01,Wunderground v.1.15,2013-01-30 16:50:00,
2013-01-30 09:55:00,20.7,1.2,29.93,WNW,292,3.0,9.0,42,0.00,,,0.01,Wunderground v.1.15,2013-01-30 16:55:00,
2013-01-30 10:00:00,20.8,0.8,29.92,North,349,4.0,4.0,41,0.00,,,0.01,Wunderground v.1.15,2013-01-30 17:00:00,
2013-01-30 10:05:00,21.1,1.0,29.92,NNW,345,4.0,4.0,41,0.00,,,0.01,Wunderground v.1.15,2013-01-30 17:05:00,
2013-01-30 10:15:00,22.0,1.3,29.93,NW,321,3.0,6.0,40,0.00,,,0.01,Wunderground v.1.15,2013-01-30 17:15:00,
2013-01-30 10:20:00,22.1,1.4,29.93,NNW,340,4.0,6.0,40,0.00,,,0.01,Wunderground v.1.15,2013-01-30 17:20:00,
2013-01-30 10:30:00,22.9,1.0,29.93,West,280,3.0,5.0,38,0.00,,,0.01,Wunderground v.1.15,2013-01-30 17:30:00,
2013-01-30 10:35:00,23.0,1.1,29.92,North,355,4.0,5.0,38,0.00,,,0.01,Wunderground v.1.15,2013-01-30 17:35:00,
2013-01-30 10:40:00,23.5,1.6,29.92,NNW,344,4.0,4.0,38,0.00,,,0.01,Wunderground v.1.15,2013-01-30 17:40:00,
2013-01-30 10:45:00,24.0,2.0,29.92,WNW,300,3.0,4.0,38,0.00,,,0.01,Wunderground v.1.15,2013-01-30 17:45:00,
2013-01-30 10:50:00,24.5,1.9,29.92,NW,322,3.0,3.0,37,0.00,,,0.01,Wunderground v.1.15,2013-01-30 17:50:00,
2013-01-30 10:55:00,25.1,3.0,29.92,WSW,257,3.0,9.0,38,0.00,,,0.01,Wunderground v.1.15,2013-01-30 17:55:00,
2013-01-30 11:00:00,25.2,2.5,29.93,SW,225,3.0,6.0,37,0.00,,,0.01,Wunderground v.1.15,2013-01-30 18:00:00,
2013-01-30 11:05:00,25.2,2.5,29.93,NNW,348,4.0,6.0,37,0.00,,,0.01,Wunderground v.1.15,2013-01-30 18:05:00,
2013-01-30 11:10:00,25.5,2.8,29.92,North,355,3.0,3.0,37,0.00,,,0.01,Wunderground v.1.15,2013-01-30 18:10:00,
2013-01-30 11:15:00,25.6,2.9,29.91,WNW,288,3.0,3.0,37,0.00,,,0.01,Wunderground v.1.15,2013-01-30 18:15:00,
2013-01-30 11:20:00,26.0,3.2,29.91,WSW,241,3.0,3.0,37,0.00,,,0.01,Wunderground v.1.15,2013-01-30 18:20:00,
2013-01-30 11:25:00,26.1,4.5,29.92,SW,233,2.0,3.0,39,0.00,,,0.01,Wunderground v.1.15,2013-01-30 18:25:00,
2013-01-30 11:30:00,26.2,4.0,29.91,West,277,2.0,2.0,38,0.00,,,0.01,Wunderground v.1.15,2013-01-30 18:30:00,
2013-01-30 11:35:00,26.3,2.9,29.92,NW,326,3.0,8.0,36,0.00,,,0.01,Wunderground v.1.15,2013-01-30 18:35:00,
2013-01-30 11:40:00,26.0,3.8,29.92,NW,304,4.0,4.0,38,0.00,,,0.01,Wunderground v.1.15,2013-01-30 18:40:00,
2013-01-30 11:45:00,26.0,2.7,29.92,NNW,346,4.0,4.0,36,0.00,,,0.01,Wunderground v.1.15,2013-01-30 18:45:00,
2013-01-30 11:55:00,26.0,2.7,29.92,NNW,344,4.0,12.0,36,0.00,,,0.01,Wunderground v.1.15,2013-01-30 18:55:00,
2013-01-30 12:00:00,26.3,4.1,29.92,NNE,18,3.0,7.0,38,0.00,,,0.01,Wunderground v.1.15,2013-01-30 19:00:00,
2013-01-30 12:05:00,26.4,3.0,29.92,NNW,342,3.0,7.0,36,0.00,,,0.01,Wunderground v.1.15,2013-01-30 19:05:00,
2013-01-30 12:10:00,26.5,3.1,29.92,North,355,3.0,3.0,36,0.00,,,0.01,Wunderground v.1.15,2013-01-30 19:10:00,
2013-01-30 12:15:00,26.6,3.8,29.92,NNW,330,2.0,3.0,37,0.00,,,0.01,Wunderground v.1.15,2013-01-30 19:15:00,
2013-01-30 12:20:00,26.8,3.4,29.92,North,360,2.0,2.0,36,0.00,,,0.01,Wunderground v.1.15,2013-01-30 19:20:00,
2013-01-30 12:25:00,27.0,3.5,29.92,NW,320,2.0,2.0,36,0.00,,,0.01,Wunderground v.1.15,2013-01-30 19:25:00,
2013-01-30 12:30:00,27.3,3.2,29.92,NNW,342,2.0,3.0,35,0.00,,,0.01,Wunderground v.1.15,2013-01-30 19:30:00,
2013-01-30 12:35:00,27.6,2.8,29.92,NW,316,2.0,3.0,34,0.00,,,0.01,Wunderground v.1.15,2013-01-30 19:35:00,
2013-01-30 12:40:00,27.5,2.8,29.92,WNW,290,2.0,2.0,34,0.00,,,0.01,Wunderground v.1.15,2013-01-30 19:40:00,
2013-01-30 12:45:00,27.3,2.6,29.91,WNW,294,2.0,10.0,34,0.00,,,0.01,Wunderground v.1.15,2013-01-30 19:45:00,
2013-01-30 12:50:00,27.1,2.4,29.91,North,350,3.0,4.0,34,0.00,,,0.01,Wunderground v.1.15,2013-01-30 19:50:00,
2013-01-30 12:55:00,27.4,3.3,29.91,NNW,346,3.0,4.0,35,0.00,,,0.01,Wunderground v.1.15,2013-01-30 19:55:00,
2013-01-30 13:00:00,28.0,3.8,29.91,WSW,251,3.0,3.0,35,0.00,,,0.01,Wunderground v.1.15,2013-01-30 20:00:00,
2013-01-30 13:10:00,29.0,3.4,29.91,North,355,2.0,3.0,33,0.00,,,0.01,Wunderground v.1.15,2013-01-30 20:10:00,
2013-01-30 13:15:00,28.8,3.3,29.91,West,273,2.0,4.0,33,0.00,,,0.01,Wunderground v.1.15,2013-01-30 20:15:00,
2013-01-30 13:20:00,28.7,3.8,29.91,NNW,334,2.0,2.0,34,0.00,,,0.01,Wunderground v.1.15,2013-01-30 20:20:00,
2013-01-30 13:25:00,29.0,3.4,29.90,NNW,333,2.0,2.0,33,0.00,,,0.01,Wunderground v.1.15,2013-01-30 20:25:00,
2013-01-30 13:30:00,28.8,3.3,29.91,NW,306,3.0,3.0,33,0.00,,,0.01,Wunderground v.1.15,2013-01-30 20:30:00,
2013-01-30 13:35:00,28.8,3.3,29.91,WNW,283,3.0,3.0,33,0.00,,,0.01,Wunderground v.1.15,2013-01-30 20:35:00,
2013-01-30 13:45:00,28.7,3.8,29.91,NNW,334,3.0,6.0,34,0.00,,,0.01,Wunderground v.1.15,2013-01-30 20:45:00,
2013-01-30 13:55:00,28.5,3.6,29.90,NW,305,3.0,3.0,34,0.00,,,0.01,Wunderground v.1.15,2013-01-30 20:55:00,
2013-01-30 14:05:00,28.8,3.3,29.92,NW,323,3.0,3.0,33,0.00,,,0.01,Wunderground v.1.15,2013-01-30 21:05:00,
2013-01-30 14:10:00,28.5,3.0,29.91,North,355,3.0,3.0,33,0.00,,,0.01,Wunderground v.1.15,2013-01-30 21:10:00,
2013-01-30 14:20:00,28.2,4.0,29.91,North,5,3.0,8.0,35,0.00,,,0.01,Wunderground v.1.15,2013-01-30 21:20:00,
2013-01-30 14:25:00,28.2,3.4,29.91,North,9,3.0,8.0,34,0.00,,,0.01,Wunderground v.1.15,2013-01-30 21:25:00,
2013-01-30 14:30:00,28.2,4.0,29.91,North,5,3.0,4.0,35,0.00,,,0.01,Wunderground v.1.15,2013-01-30 21:30:00,
2013-01-30 14:35:00,28.0,3.2,29.91,NNW,333,3.0,4.0,34,0.00,,,0.01,Wunderground v.1.15,2013-01-30 21:35:00,
2013-01-30 14:40:00,27.8,3.6,29.91,NW,304,3.0,3.0,35,0.00,,,0.01,Wunderground v.1.15,2013-01-30 21:40:00,
2013-01-30 14:45:00,27.7,4.2,29.91,WSW,242,2.0,3.0,36,0.00,,,0.01,Wunderground v.1.15,2013-01-30 21:45:00,
2013-01-30 14:50:00,27.7,3.6,29.91,NNW,346,2.0,2.0,35,0.00,,,0.01,Wunderground v.1.15,2013-01-30 21:50:00,
2013-01-30 14:55:00,27.7,3.6,29.91,NNW,348,2.0,6.0,35,0.00,,,0.01,Wunderground v.1.15,2013-01-30 21:55:00,
2013-01-30 15:00:00,27.5,4.0,29.92,North,355,3.0,3.0,36,0.00,,,0.01,Wunderground v.1.15,2013-01-30 22:00:00,
2013-01-30 15:05:00,27.4,3.3,29.92,NNW,339,4.0,13.0,35,0.00,,,0.01,Wunderground v.1.15,2013-01-30 22:05:00,
2013-01-30 15:10:00,27.3,4.4,29.92,WSW,244,4.0,4.0,37,0.00,,,0.01,Wunderground v.1.15,2013-01-30 22:10:00,
2013-01-30 15:15:00,27.3,4.4,29.92,North,360,3.0,4.0,37,0.00,,,0.01,Wunderground v.1.15,2013-01-30 22:15:00,
2013-01-30 15:20:00,27.3,4.4,29.92,West,277,2.0,6.0,37,0.00,,,0.01,Wunderground v.1.15,2013-01-30 22:20:00,
2013-01-30 15:25:00,26.6,4.4,29.92,North,350,3.0,6.0,38,0.00,,,0.01,Wunderground v.1.15,2013-01-30 22:25:00,
2013-01-30 15:30:00,26.3,4.7,29.92,NNE,24,3.0,6.0,39,0.00,,,0.01,Wunderground v.1.15,2013-01-30 22:30:00,
2013-01-30 15:35:00,26.3,4.7,29.92,NW,309,2.0,6.0,39,0.00,,,0.01,Wunderground v.1.15,2013-01-30 22:35:00,
2013-01-30 15:40:00,26.0,4.4,29.92,WSW,242,2.0,2.0,39,0.00,,,0.01,Wunderground v.1.15,2013-01-30 22:40:00,
2013-01-30 15:45:00,25.8,4.8,29.92,SSE,160,3.0,3.0,40,0.00,,,0.01,Wunderground v.1.15,2013-01-30 22:45:00,
2013-01-30 15:55:00,25.5,5.0,29.91,NNW,346,2.0,3.0,41,0.00,,,0.01,Wunderground v.1.15,2013-01-30 22:55:00,
2013-01-30 16:00:00,25.4,4.9,29.91,NW,324,1.0,1.0,41,0.00,,,0.01,Wunderground v.1.15,2013-01-30 23:00:00,
2013-01-30 16:10:00,25.1,5.2,29.90,North,355,2.0,2.0,42,0.00,,,0.01,Wunderground v.1.15,2013-01-30 23:10:00,
2013-01-30 16:15:00,24.9,5.5,29.88,NNW,333,1.0,2.0,43,0.00,,,0.01,Wunderground v.1.15,2013-01-30 23:15:00,
2013-01-30 16:20:00,24.8,5.4,29.89,NW,317,1.0,2.0,43,0.00,,,0.01,Wunderground v.1.15,2013-01-30 23:20:00,
2013-01-30 16:25:00,24.7,5.3,29.89,SW,221,3.0,4.0,43,0.00,,,0.01,Wunderground v.1.15,2013-01-30 23:25:00,
2013-01-30 16:35:00,24.3,5.0,29.89,WNW,286,3.0,5.0,43,0.00,,,0.01,Wunderground v.1.15,2013-01-30 23:35:00,
2013-01-30 16:40:00,24.2,4.9,29.89,West,271,2.0,2.0,43,0.00,,,0.01,Wunderground v.1.15,2013-01-30 23:40:00,
2013-01-30 16:45:00,24.0,4.7,29.90,NW,323,2.0,3.0,43,0.00,,,0.01,Wunderground v.1.15,2013-01-30 23:45:00,
2013-01-30 16:55:00,23.7,4.9,29.90,WNW,296,2.0,2.0,44,0.00,,,0.01,Wunderground v.1.15,2013-01-30 23:55:00,
2013-01-30 17:05:00,23.2,4.5,29.90,NNE,32,1.0,2.0,44,0.00,,,0.01,Wunderground v.1.15,2013-01-31 00:05:00,
2013-01-30 17:10:00,23.0,3.8,29.90,NNW,346,1.0,1.0,43,0.00,,,0.01,Wunderground v.1.15,2013-01-31 00:10:00,
2013-01-30 17:20:00,22.7,4.0,29.91,WNW,282,2.0,2.0,44,0.00,,,0.01,Wunderground v.1.15,2013-01-31 00:20:00,
2013-01-30 17:30:00,22.5,3.8,29.92,WSW,257,2.0,2.0,44,0.00,,,0.01,Wunderground v.1.15,2013-01-31 00:30:00,
2013-01-30 17:40:00,22.6,4.4,29.92,NNW,340,2.0,2.0,45,0.00,,,0.01,Wunderground v.1.15,2013-01-31 00:40:00,
2013-01-30 17:45:00,22.5,4.8,29.92,NNW,337,1.0,2.0,46,0.00,,,0.01,Wunderground v.1.15,2013-01-31 00:45:00,
2013-01-30 17:50:00,22.5,4.3,29.91,NNE,33,2.0,2.0,45,0.00,,,0.01,Wunderground v.1.15,2013-01-31 00:50:00,
2013-01-30 17:55:00,22.6,4.4,29.91,NNW,330,3.0,3.0,45,0.00,,,0.01,Wunderground v.1.15,2013-01-31 00:55:00,
2013-01-30 18:00:00,22.6,4.4,29.91,NNW,338,3.0,3.0,45,0.00,,,0.01,Wunderground v.1.15,2013-01-31 01:00:00,
2013-01-30 18:05:00,22.5,4.8,29.91,NNW,345,2.0,3.0,46,0.00,,,0.01,Wunderground v.1.15,2013-01-31 01:05:00,
2013-01-30 18:10:00,22.4,4.7,29.91,NNW,344,2.0,4.0,46,0.00,,,0.01,Wunderground v.1.15,2013-01-31 01:10:00,
2013-01-30 18:15:00,22.5,4.3,29.91,NW,305,3.0,4.0,45,0.00,,,0.01,Wunderground v.1.15,2013-01-31 01:15:00,
2013-01-30 18:20:00,22.3,4.6,29.91,WNW,302,2.0,2.0,46,0.00,,,0.01,Wunderground v.1.15,2013-01-31 01:20:00,
2013-01-30 18:25:00,22.2,4.5,29.91,NNW,330,2.0,2.0,46,0.00,,,0.01,Wunderground v.1.15,2013-01-31 01:25:00,
2013-01-30 18:30:00,22.1,4.9,29.91,North,5,2.0,4.0,47,0.00,,,0.01,Wunderground v.1.15,2013-01-31 01:30:00,
2013-01-30 18:35:00,22.1,4.9,29.91,North,355,2.0,4.0,47,0.00,,,0.01,Wunderground v.1.15,2013-01-31 01:35:00,
2013-01-30 18:40:00,22.1,4.9,29.91,North,351,2.0,2.0,47,0.00,,,0.01,Wunderground v.1.15,2013-01-31 01:40:00,
2013-01-30 18:50:00,22.3,5.1,29.91,North,360,2.0,3.0,47,0.00,,,0.01,Wunderground v.1.15,2013-01-31 01:50:00,
2013-01-30 19:00:00,22.2,5.0,29.91,NNW,338,2.0,2.0,47,0.00,,,0.01,Wunderground v.1.15,2013-01-31 02:00:00,
2013-01-30 19:05:00,22.4,5.2,29.92,West,276,3.0,3.0,47,0.00,,,0.01,Wunderground v.1.15,2013-01-31 02:05:00,
2013-01-30 19:10:00,22.5,5.3,29.92,NNW,336,2.0,3.0,47,0.00,,,0.01,Wunderground v.1.15,2013-01-31 02:10:00,
2013-01-30 19:15:00,22.6,4.9,29.93,NNW,340,2.0,3.0,46,0.00,,,0.01,Wunderground v.1.15,2013-01-31 02:15:00,
2013-01-30 19:20:00,22.7,5.5,29.92,NNW,334,2.0,4.0,47,0.00,,,0.01,Wunderground v.1.15,2013-01-31 02:20:00,
2013-01-30 19:25:00,22.7,5.0,29.92,North,355,2.0,4.0,46,0.00,,,0.01,Wunderground v.1.15,2013-01-31 02:25:00,
2013-01-30 19:30:00,22.7,5.5,29.93,North,351,2.0,2.0,47,0.00,,,0.01,Wunderground v.1.15,2013-01-31 02:30:00,
2013-01-30 19:35:00,22.6,5.4,29.93,NNW,331,1.0,2.0,47,0.00,,,0.01,Wunderground v.1.15,2013-01-31 02:35:00,
2013-01-30 19:40:00,22.5,5.3,29.93,NW,314,1.0,1.0,47,0.00,,,0.01,Wunderground v.1.15,2013-01-31 02:40:00,
2013-01-30 19:45:00,22.3,5.6,29.93,WSW,243,1.0,2.0,48,0.00,,,0.01,Wunderground v.1.15,2013-01-31 02:45:00,
2013-01-30 19:50:00,22.1,5.8,29.93,West,268,1.0,1.0,49,0.00,,,0.01,Wunderground v.1.15,2013-01-31 02:50:00,
2013-01-30 20:00:00,22.0,5.7,29.94,NNW,327,2.0,2.0,49,0.00,,,0.01,Wunderground v.1.15,2013-01-31 03:00:00,
2013-01-30 20:05:00,22.2,5.5,29.94,NNW,345,1.0,2.0,48,0.00,,,0.01,Wunderground v.1.15,2013-01-31 03:05:00,
2013-01-30 20:15:00,22.6,5.4,29.94,NNW,334,1.0,2.0,47,0.00,,,0.01,Wunderground v.1.15,2013-01-31 03:15:00,
2013-01-30 20:25:00,22.6,5.4,29.95,WNW,298,2.0,2.0,47,0.00,,,0.01,Wunderground v.1.15,2013-01-31 03:25:00,
2013-01-30 20:30:00,22.6,5.4,29.94,NW,316,2.0,3.0,47,0.00,,,0.01,Wunderground v.1.15,2013-01-31 03:30:00,
2013-01-30 20:40:00,22.5,5.7,29.94,NNW,346,2.0,2.0,48,0.00,,,0.01,Wunderground v.1.15,2013-01-31 03:40:00,
2013-01-30 20:45:00,22.4,5.6,29.94,NE,35,1.0,3.0,48,0.00,,,0.01,Wunderground v.1.15,2013-01-31 03:45:00,
2013-01-30 20:50:00,22.5,5.7,29.94,NW,326,1.0,3.0,48,0.00,,,0.01,Wunderground v.1.15,2013-01-31 03:50:00,
2013-01-30 20:55:00,22.5,5.7,29.94,NNW,337,1.0,3.0,48,0.00,,,0.01,Wunderground v.1.15,2013-01-31 03:55:00,
2013-01-30 21:05:00,22.7,5.9,29.94,North,355,1.0,2.0,48,0.00,,,0.01,Wunderground v.1.15,2013-01-31 04:05:00,
2013-01-30 21:10:00,22.8,6.0,29.95,NNW,328,2.0,2.0,48,0.00,,,0.01,Wunderground v.1.15,2013-01-31 04:10:00,
2013-01-30 21:15:00,22.7,6.4,29.95,NW,320,1.0,2.0,49,0.00,,,0.01,Wunderground v.1.15,2013-01-31 04:15:00,
2013-01-30 21:20:00,22.7,5.9,29.94,NNW,333,1.0,3.0,48,0.00,,,0.01,Wunderground v.1.15,2013-01-31 04:20:00,
2013-01-30 21:25:00,22.7,6.4,29.94,North,355,2.0,3.0,49,0.00,,,0.01,Wunderground v.1.15,2013-01-31 04:25:00,
2013-01-30 21:30:00,22.8,6.5,29.94,NNW,336,2.0,2.0,49,0.00,,,0.01,Wunderground v.1.15,2013-01-31 04:30:00,
2013-01-30 21:35:00,22.7,6.4,29.94,NNW,339,1.0,2.0,49,0.00,,,0.01,Wunderground v.1.15,2013-01-31 04:35:00,
2013-01-30 21:40:00,22.7,6.4,29.95,NNW,336,1.0,2.0,49,0.00,,,0.01,Wunderground v.1.15,2013-01-31 04:40:00,
2013-01-30 21:45:00,22.9,6.6,29.94,North,355,2.0,3.0,49,0.00,,,0.01,Wunderground v.1.15,2013-01-31 04:45:00,
2013-01-30 21:50:00,22.9,6.1,29.94,North,5,2.0,2.0,48,0.00,,,0.01,Wunderground v.1.15,2013-01-31 04:50:00,
2013-01-30 21:55:00,22.9,6.6,29.94,NNW,346,2.0,2.0,49,0.00,,,0.01,Wunderground v.1.15,2013-01-31 04:55:00,
2013-01-30 22:00:00,23.1,6.3,29.94,NNW,341,2.0,2.0,48,0.00,,,0.01,Wunderground v.1.15,2013-01-31 05:00:00,
2013-01-30 22:10:00,23.2,6.4,29.94,North,360,2.0,2.0,48,0.00,,,0.01,Wunderground v.1.15,2013-01-31 05:10:00,
2013-01-30 22:15:00,23.3,6.5,29.94,NNW,348,2.0,2.0,48,0.00,,,0.01,Wunderground v.1.15,2013-01-31 05:15:00,
2013-01-30 22:20:00,23.3,6.9,29.94,North,355,3.0,4.0,49,0.00,,,0.01,Wunderground v.1.15,2013-01-31 05:20:00,
2013-01-30 22:25:00,23.3,6.9,29.95,NNW,338,2.0,7.0,49,0.00,,,0.01,Wunderground v.1.15,2013-01-31 05:25:00,
2013-01-30 22:30:00,23.2,6.8,29.95,North,355,2.0,2.0,49,0.00,,,0.01,Wunderground v.1.15,2013-01-31 05:30:00,
2013-01-30 22:35:00,23.2,6.8,29.95,North,350,2.0,3.0,49,0.00,,,0.01,Wunderground v.1.15,2013-01-31 05:35:00,
2013-01-30 22:40:00,23.0,7.1,29.95,NNW,337,2.0,2.0,50,0.00,,,0.01,Wunderground v.1.15,2013-01-31 05:40:00,
2013-01-30 22:45:00,22.8,7.4,29.95,West,278,2.0,2.0,51,0.00,,,0.01,Wunderground v.1.15,2013-01-31 05:45:00,
2013-01-30 22:50:00,22.6,7.2,29.95,NNW,341,1.0,4.0,51,0.00,,,0.01,Wunderground v.1.15,2013-01-31 05:50:00,
2013-01-30 22:55:00,22.7,7.3,29.95,NNW,328,2.0,4.0,51,0.00,,,0.01,Wunderground v.1.15,2013-01-31 05:55:00,
2013-01-30 23:00:00,22.7,7.3,29.95,NW,314,2.0,2.0,51,0.00,,,0.01,Wunderground v.1.15,2013-01-31 06:00:00,
2013-01-30 23:05:00,22.6,7.2,29.95,NNE,24,1.0,2.0,51,0.00,,,0.01,Wunderground v.1.15,2013-01-31 06:05:00,
2013-01-30 23:10:00,22.7,7.3,29.95,NW,319,1.0,1.0,51,0.00,,,0.01,Wunderground v.1.15,2013-01-31 06:10:00,
2013-01-30 23:15:00,22.6,7.6,29.95,NNW,342,1.0,4.0,52,0.00,,,0.01,Wunderground v.1.15,2013-01-31 06:15:00,
2013-01-30 23:20:00,22.6,7.6,29.95,NNW,331,1.0,1.0,52,0.00,,,0.01,Wunderground v.1.15,2013-01-31 06:20:00,
2013-01-30 23:25:00,22.6,7.6,29.95,NNW,332,1.0,2.0,52,0.00,,,0.01,Wunderground v.1.15,2013-01-31 06:25:00,
2013-01-30 23:30:00,22.6,7.6,29.94,NNW,340,1.0,1.0,52,0.00,,,0.01,Wunderground v.1.15,2013-01-31 06:30:00,
2013-01-30 23:35:00,22.5,7.5,29.94,NW,308,1.0,2.0,52,0.00,,,0.01,Wunderground v.1.15,2013-01-31 06:35:00,
2013-01-30 23:40:00,22.6,7.6,29.95,WNW,303,1.0,1.0,52,0.00,,,0.01,Wunderground v.1.15,2013-01-31 06:40:00,
2013-01-30 23:45:00,22.5,7.5,29.95,NNW,340,1.0,2.0,52,0.00,,,0.01,Wunderground v.1.15,2013-01-31 06:45:00,
2013-01-30 23:50:00,22.3,7.7,29.95,NNE,22,1.0,2.0,53,0.00,,,0.01,Wunderground v.1.15,2013-01-31 06:50:00,
2013-01-30 23:55:00,22.3,7.7,29.95,NW,316,1.0,2.0,53,0.00,,,0.01,Wunderground v.1.15,2013-01-31 06:55:00,